sensor_id;sensor_type;location;lat;lon;timestamp;P1;durP1;ratioP1;P2;durP2;ratioP2
81006;SDS011;70472;47.592;17.640;2023-09-07T00:00:30;6.67;;;6.67;;
81006;SDS011;70472;47.592;17.640;2023-09-07T00:01:06;7.07;;;7.07;;
81006;SDS011;70472;47.592;17.640;2023-09-07T00:01:39;7.23;;;7.23;;
81006;SDS011;70472;47.592;17.640;2023-09-07T00:02:11;6.80;;;6.80;;
81006;SDS011;70472;47.592;17.640;2023-09-07T00:02:43;6.80;;;6.80;;
81006;SDS011;70472;47.592;17.640;2023-09-07T00:03:16;7.40;;;7.40;;
81006;SDS011;70472;47.592;17.640;2023-09-07T00:03:48;7.23;;;7.23;;
81006;SDS011;70472;47.592;17.640;2023-09-07T00:04:20;7.03;;;7.03;;
81006;SDS011;70472;47.592;17.640;2023-09-07T00:04:53;6.70;;;6.70;;
81006;SDS011;70472;47.592;17.640;2023-09-07T00:05:25;6.37;;;6.37;;
81006;SDS011;70472;47.592;17.640;2023-09-07T00:05:58;6.87;;;6.87;;
81006;SDS011;70472;47.592;17.640;2023-09-07T00:06:30;7.17;;;7.17;;
81006;SDS011;70472;47.592;17.640;2023-09-07T00:07:03;6.63;;;6.63;;
81006;SDS011;70472;47.592;17.640;2023-09-07T00:07:35;6.70;;;6.70;;
81006;SDS011;70472;47.592;17.640;2023-09-07T00:08:08;6.43;;;6.43;;
81006;SDS011;70472;47.592;17.640;2023-09-07T00:08:40;6.73;;;6.73;;
81006;SDS011;70472;47.592;17.640;2023-09-07T00:09:13;6.93;;;6.93;;
81006;SDS011;70472;47.592;17.640;2023-09-07T00:09:45;7.43;;;7.43;;
81006;SDS011;70472;47.592;17.640;2023-09-07T00:10:17;6.83;;;6.83;;
81006;SDS011;70472;47.592;17.640;2023-09-07T00:10:50;6.13;;;6.13;;
81006;SDS011;70472;47.592;17.640;2023-09-07T00:11:23;5.77;;;5.77;;
81006;SDS011;70472;47.592;17.640;2023-09-07T00:11:55;6.77;;;6.77;;
81006;SDS011;70472;47.592;17.640;2023-09-07T00:12:28;6.93;;;6.93;;
81006;SDS011;70472;47.592;17.640;2023-09-07T00:13:01;7.03;;;7.03;;
81006;SDS011;70472;47.592;17.640;2023-09-07T00:13:34;6.73;;;6.73;;
81006;SDS011;70472;47.592;17.640;2023-09-07T00:14:07;6.53;;;6.53;;
81006;SDS011;70472;47.592;17.640;2023-09-07T00:14:39;7.00;;;7.00;;
81006;SDS011;70472;47.592;17.640;2023-09-07T00:15:12;6.67;;;6.67;;
81006;SDS011;70472;47.592;17.640;2023-09-07T00:15:44;6.20;;;6.20;;
81006;SDS011;70472;47.592;17.640;2023-09-07T00:16:18;6.53;;;6.53;;
81006;SDS011;70472;47.592;17.640;2023-09-07T00:16:50;6.83;;;6.83;;
81006;SDS011;70472;47.592;17.640;2023-09-07T00:17:22;7.10;;;7.10;;
81006;SDS011;70472;47.592;17.640;2023-09-07T00:17:55;6.77;;;6.77;;
81006;SDS011;70472;47.592;17.640;2023-09-07T00:18:28;6.47;;;6.47;;
81006;SDS011;70472;47.592;17.640;2023-09-07T00:19:02;6.47;;;6.47;;
81006;SDS011;70472;47.592;17.640;2023-09-07T00:19:34;6.60;;;6.60;;
81006;SDS011;70472;47.592;17.640;2023-09-07T00:20:07;6.53;;;6.53;;
81006;SDS011;70472;47.592;17.640;2023-09-07T00:20:40;6.53;;;6.53;;
81006;SDS011;70472;47.592;17.640;2023-09-07T00:21:12;6.47;;;6.47;;
81006;SDS011;70472;47.592;17.640;2023-09-07T00:21:44;7.03;;;7.03;;
81006;SDS011;70472;47.592;17.640;2023-09-07T00:22:17;7.23;;;7.23;;
81006;SDS011;70472;47.592;17.640;2023-09-07T00:22:49;6.90;;;6.90;;
81006;SDS011;70472;47.592;17.640;2023-09-07T00:23:22;6.40;;;6.40;;
81006;SDS011;70472;47.592;17.640;2023-09-07T00:23:54;6.43;;;6.43;;
81006;SDS011;70472;47.592;17.640;2023-09-07T00:24:26;6.93;;;6.93;;
81006;SDS011;70472;47.592;17.640;2023-09-07T00:24:59;6.40;;;6.40;;
81006;SDS011;70472;47.592;17.640;2023-09-07T00:25:31;6.50;;;6.50;;
81006;SDS011;70472;47.592;17.640;2023-09-07T00:26:03;6.77;;;6.77;;
81006;SDS011;70472;47.592;17.640;2023-09-07T00:26:36;6.83;;;6.83;;
81006;SDS011;70472;47.592;17.640;2023-09-07T00:27:08;6.63;;;6.63;;
81006;SDS011;70472;47.592;17.640;2023-09-07T00:27:40;6.43;;;6.43;;
81006;SDS011;70472;47.592;17.640;2023-09-07T00:28:13;6.53;;;6.53;;
81006;SDS011;70472;47.592;17.640;2023-09-07T00:28:45;6.57;;;6.57;;
81006;SDS011;70472;47.592;17.640;2023-09-07T00:29:18;6.90;;;6.90;;
81006;SDS011;70472;47.592;17.640;2023-09-07T00:29:50;6.93;;;6.93;;
81006;SDS011;70472;47.592;17.640;2023-09-07T00:30:23;6.27;;;6.27;;
81006;SDS011;70472;47.592;17.640;2023-09-07T00:30:55;6.43;;;6.43;;
81006;SDS011;70472;47.592;17.640;2023-09-07T00:31:27;6.67;;;6.67;;
81006;SDS011;70472;47.592;17.640;2023-09-07T00:32:00;6.23;;;6.23;;
81006;SDS011;70472;47.592;17.640;2023-09-07T00:32:33;6.47;;;6.47;;
81006;SDS011;70472;47.592;17.640;2023-09-07T00:33:08;6.70;;;6.70;;
81006;SDS011;70472;47.592;17.640;2023-09-07T00:33:40;6.33;;;6.33;;
81006;SDS011;70472;47.592;17.640;2023-09-07T00:34:13;6.23;;;6.23;;
81006;SDS011;70472;47.592;17.640;2023-09-07T00:34:46;6.77;;;6.77;;
81006;SDS011;70472;47.592;17.640;2023-09-07T00:35:19;6.73;;;6.73;;
81006;SDS011;70472;47.592;17.640;2023-09-07T00:35:51;6.53;;;6.53;;
81006;SDS011;70472;47.592;17.640;2023-09-07T00:36:23;6.47;;;6.47;;
81006;SDS011;70472;47.592;17.640;2023-09-07T00:36:56;6.07;;;6.07;;
81006;SDS011;70472;47.592;17.640;2023-09-07T00:37:29;6.73;;;6.73;;
81006;SDS011;70472;47.592;17.640;2023-09-07T00:38:02;6.47;;;6.47;;
81006;SDS011;70472;47.592;17.640;2023-09-07T00:38:34;6.90;;;6.90;;
81006;SDS011;70472;47.592;17.640;2023-09-07T00:39:07;6.57;;;6.57;;
81006;SDS011;70472;47.592;17.640;2023-09-07T00:39:39;6.30;;;6.30;;
81006;SDS011;70472;47.592;17.640;2023-09-07T00:40:12;5.90;;;5.90;;
81006;SDS011;70472;47.592;17.640;2023-09-07T00:40:44;6.40;;;6.40;;
81006;SDS011;70472;47.592;17.640;2023-09-07T00:41:17;6.77;;;6.77;;
81006;SDS011;70472;47.592;17.640;2023-09-07T00:41:49;6.37;;;6.37;;
81006;SDS011;70472;47.592;17.640;2023-09-07T00:42:21;6.27;;;6.27;;
81006;SDS011;70472;47.592;17.640;2023-09-07T00:42:54;5.53;;;5.53;;
81006;SDS011;70472;47.592;17.640;2023-09-07T00:43:26;5.60;;;5.60;;
81006;SDS011;70472;47.592;17.640;2023-09-07T00:43:58;6.00;;;6.00;;
81006;SDS011;70472;47.592;17.640;2023-09-07T00:44:31;6.07;;;6.07;;
81006;SDS011;70472;47.592;17.640;2023-09-07T00:45:03;6.50;;;6.50;;
81006;SDS011;70472;47.592;17.640;2023-09-07T00:45:37;6.70;;;6.70;;
81006;SDS011;70472;47.592;17.640;2023-09-07T00:46:10;6.13;;;6.13;;
81006;SDS011;70472;47.592;17.640;2023-09-07T00:46:44;6.03;;;6.03;;
81006;SDS011;70472;47.592;17.640;2023-09-07T00:47:17;6.43;;;6.43;;
81006;SDS011;70472;47.592;17.640;2023-09-07T00:47:50;6.40;;;6.40;;
81006;SDS011;70472;47.592;17.640;2023-09-07T00:48:23;5.43;;;5.43;;
81006;SDS011;70472;47.592;17.640;2023-09-07T00:48:55;6.27;;;6.27;;
81006;SDS011;70472;47.592;17.640;2023-09-07T00:49:29;6.77;;;6.77;;
81006;SDS011;70472;47.592;17.640;2023-09-07T00:50:03;5.93;;;5.93;;
81006;SDS011;70472;47.592;17.640;2023-09-07T00:50:39;6.57;;;6.57;;
81006;SDS011;70472;47.592;17.640;2023-09-07T00:51:12;6.70;;;6.70;;
81006;SDS011;70472;47.592;17.640;2023-09-07T00:51:45;6.33;;;6.33;;
81006;SDS011;70472;47.592;17.640;2023-09-07T00:52:18;6.33;;;6.33;;
81006;SDS011;70472;47.592;17.640;2023-09-07T00:52:52;6.40;;;6.40;;
81006;SDS011;70472;47.592;17.640;2023-09-07T00:53:25;6.60;;;6.60;;
81006;SDS011;70472;47.592;17.640;2023-09-07T00:53:59;6.37;;;6.37;;
81006;SDS011;70472;47.592;17.640;2023-09-07T00:54:31;6.90;;;6.90;;
81006;SDS011;70472;47.592;17.640;2023-09-07T00:55:04;5.93;;;5.93;;
81006;SDS011;70472;47.592;17.640;2023-09-07T00:55:37;6.23;;;6.23;;
81006;SDS011;70472;47.592;17.640;2023-09-07T00:56:10;6.53;;;6.53;;
81006;SDS011;70472;47.592;17.640;2023-09-07T00:56:43;6.03;;;6.03;;
81006;SDS011;70472;47.592;17.640;2023-09-07T00:57:16;6.10;;;6.10;;
81006;SDS011;70472;47.592;17.640;2023-09-07T00:57:48;6.10;;;6.10;;
81006;SDS011;70472;47.592;17.640;2023-09-07T00:58:21;6.50;;;6.50;;
81006;SDS011;70472;47.592;17.640;2023-09-07T00:58:54;6.17;;;6.17;;
81006;SDS011;70472;47.592;17.640;2023-09-07T00:59:27;6.83;;;6.83;;
81006;SDS011;70472;47.592;17.640;2023-09-07T01:00:00;6.23;;;6.23;;
81006;SDS011;70472;47.592;17.640;2023-09-07T01:00:33;6.67;;;6.67;;
81006;SDS011;70472;47.592;17.640;2023-09-07T01:01:06;6.67;;;6.67;;
81006;SDS011;70472;47.592;17.640;2023-09-07T01:01:39;5.83;;;5.83;;
81006;SDS011;70472;47.592;17.640;2023-09-07T01:02:11;6.33;;;6.33;;
81006;SDS011;70472;47.592;17.640;2023-09-07T01:02:44;6.03;;;6.03;;
81006;SDS011;70472;47.592;17.640;2023-09-07T01:03:16;6.13;;;6.13;;
81006;SDS011;70472;47.592;17.640;2023-09-07T01:03:50;6.70;;;6.70;;
81006;SDS011;70472;47.592;17.640;2023-09-07T01:04:22;6.67;;;6.67;;
81006;SDS011;70472;47.592;17.640;2023-09-07T01:04:55;6.80;;;6.80;;
81006;SDS011;70472;47.592;17.640;2023-09-07T01:06:45;5.83;;;5.83;;
81006;SDS011;70472;47.592;17.640;2023-09-07T01:07:32;6.30;;;6.30;;
81006;SDS011;70472;47.592;17.640;2023-09-07T01:08:19;6.47;;;6.47;;
81006;SDS011;70472;47.592;17.640;2023-09-07T01:09:03;6.03;;;6.03;;
81006;SDS011;70472;47.592;17.640;2023-09-07T01:09:44;6.13;;;6.13;;
81006;SDS011;70472;47.592;17.640;2023-09-07T01:10:23;6.27;;;6.27;;
81006;SDS011;70472;47.592;17.640;2023-09-07T01:10:55;6.83;;;6.83;;
81006;SDS011;70472;47.592;17.640;2023-09-07T01:11:35;6.17;;;6.17;;
81006;SDS011;70472;47.592;17.640;2023-09-07T01:12:13;5.77;;;5.77;;
81006;SDS011;70472;47.592;17.640;2023-09-07T01:12:47;5.20;;;5.20;;
81006;SDS011;70472;47.592;17.640;2023-09-07T01:13:19;6.20;;;6.20;;
81006;SDS011;70472;47.592;17.640;2023-09-07T01:13:52;5.90;;;5.90;;
81006;SDS011;70472;47.592;17.640;2023-09-07T01:14:24;6.07;;;6.07;;
81006;SDS011;70472;47.592;17.640;2023-09-07T01:14:57;6.43;;;6.43;;
81006;SDS011;70472;47.592;17.640;2023-09-07T01:15:29;6.27;;;6.27;;
81006;SDS011;70472;47.592;17.640;2023-09-07T01:16:02;6.13;;;6.13;;
81006;SDS011;70472;47.592;17.640;2023-09-07T01:16:35;6.10;;;6.10;;
81006;SDS011;70472;47.592;17.640;2023-09-07T01:17:09;6.17;;;6.17;;
81006;SDS011;70472;47.592;17.640;2023-09-07T01:17:42;6.53;;;6.53;;
81006;SDS011;70472;47.592;17.640;2023-09-07T01:18:16;6.30;;;6.30;;
81006;SDS011;70472;47.592;17.640;2023-09-07T01:18:53;5.97;;;5.97;;
81006;SDS011;70472;47.592;17.640;2023-09-07T01:19:26;5.37;;;5.37;;
81006;SDS011;70472;47.592;17.640;2023-09-07T01:19:58;6.53;;;6.53;;
81006;SDS011;70472;47.592;17.640;2023-09-07T01:20:36;6.27;;;6.27;;
81006;SDS011;70472;47.592;17.640;2023-09-07T01:21:13;6.33;;;6.33;;
81006;SDS011;70472;47.592;17.640;2023-09-07T01:21:46;6.43;;;6.43;;
81006;SDS011;70472;47.592;17.640;2023-09-07T01:22:21;6.87;;;6.87;;
81006;SDS011;70472;47.592;17.640;2023-09-07T01:22:54;5.70;;;5.70;;
81006;SDS011;70472;47.592;17.640;2023-09-07T01:23:27;6.30;;;6.30;;
81006;SDS011;70472;47.592;17.640;2023-09-07T01:24:00;6.00;;;6.00;;
81006;SDS011;70472;47.592;17.640;2023-09-07T01:24:41;6.27;;;6.27;;
81006;SDS011;70472;47.592;17.640;2023-09-07T01:25:17;6.03;;;6.03;;
81006;SDS011;70472;47.592;17.640;2023-09-07T01:25:49;5.87;;;5.87;;
81006;SDS011;70472;47.592;17.640;2023-09-07T01:26:25;6.13;;;6.13;;
81006;SDS011;70472;47.592;17.640;2023-09-07T01:26:57;5.70;;;5.70;;
81006;SDS011;70472;47.592;17.640;2023-09-07T01:27:32;5.53;;;5.53;;
81006;SDS011;70472;47.592;17.640;2023-09-07T01:28:06;6.17;;;6.17;;
81006;SDS011;70472;47.592;17.640;2023-09-07T01:28:39;5.97;;;5.97;;
81006;SDS011;70472;47.592;17.640;2023-09-07T01:29:12;5.80;;;5.80;;
81006;SDS011;70472;47.592;17.640;2023-09-07T01:29:44;5.60;;;5.60;;
81006;SDS011;70472;47.592;17.640;2023-09-07T01:30:17;6.33;;;6.33;;
81006;SDS011;70472;47.592;17.640;2023-09-07T01:30:50;5.23;;;5.23;;
81006;SDS011;70472;47.592;17.640;2023-09-07T01:31:23;5.73;;;5.73;;
81006;SDS011;70472;47.592;17.640;2023-09-07T01:31:56;5.87;;;5.87;;
81006;SDS011;70472;47.592;17.640;2023-09-07T01:32:29;5.30;;;5.30;;
81006;SDS011;70472;47.592;17.640;2023-09-07T01:33:01;6.10;;;6.10;;
81006;SDS011;70472;47.592;17.640;2023-09-07T01:33:34;6.10;;;6.10;;
81006;SDS011;70472;47.592;17.640;2023-09-07T01:34:06;6.00;;;6.00;;
81006;SDS011;70472;47.592;17.640;2023-09-07T01:34:39;6.40;;;6.40;;
81006;SDS011;70472;47.592;17.640;2023-09-07T01:35:12;6.30;;;6.30;;
81006;SDS011;70472;47.592;17.640;2023-09-07T01:35:48;5.87;;;5.87;;
81006;SDS011;70472;47.592;17.640;2023-09-07T01:36:20;5.63;;;5.63;;
81006;SDS011;70472;47.592;17.640;2023-09-07T01:36:53;5.77;;;5.77;;
81006;SDS011;70472;47.592;17.640;2023-09-07T01:37:25;5.60;;;5.60;;
81006;SDS011;70472;47.592;17.640;2023-09-07T01:37:58;6.27;;;6.27;;
81006;SDS011;70472;47.592;17.640;2023-09-07T01:38:30;6.23;;;6.23;;
81006;SDS011;70472;47.592;17.640;2023-09-07T01:39:03;5.93;;;5.93;;
81006;SDS011;70472;47.592;17.640;2023-09-07T01:39:36;5.67;;;5.67;;
81006;SDS011;70472;47.592;17.640;2023-09-07T01:40:09;4.97;;;4.97;;
81006;SDS011;70472;47.592;17.640;2023-09-07T01:40:41;5.40;;;5.40;;
81006;SDS011;70472;47.592;17.640;2023-09-07T01:41:15;6.27;;;6.27;;
81006;SDS011;70472;47.592;17.640;2023-09-07T01:41:47;5.60;;;5.60;;
81006;SDS011;70472;47.592;17.640;2023-09-07T01:42:19;5.63;;;5.63;;
81006;SDS011;70472;47.592;17.640;2023-09-07T01:42:52;6.23;;;6.23;;
81006;SDS011;70472;47.592;17.640;2023-09-07T01:43:24;6.00;;;6.00;;
81006;SDS011;70472;47.592;17.640;2023-09-07T01:43:57;5.63;;;5.63;;
81006;SDS011;70472;47.592;17.640;2023-09-07T01:44:29;6.20;;;6.20;;
81006;SDS011;70472;47.592;17.640;2023-09-07T01:45:01;5.90;;;5.90;;
81006;SDS011;70472;47.592;17.640;2023-09-07T01:45:34;6.03;;;6.03;;
81006;SDS011;70472;47.592;17.640;2023-09-07T01:46:06;5.83;;;5.83;;
81006;SDS011;70472;47.592;17.640;2023-09-07T01:46:39;5.63;;;5.63;;
81006;SDS011;70472;47.592;17.640;2023-09-07T01:47:11;6.60;;;6.60;;
81006;SDS011;70472;47.592;17.640;2023-09-07T01:47:44;6.23;;;6.23;;
81006;SDS011;70472;47.592;17.640;2023-09-07T01:48:16;5.60;;;5.60;;
81006;SDS011;70472;47.592;17.640;2023-09-07T01:48:49;5.57;;;5.57;;
81006;SDS011;70472;47.592;17.640;2023-09-07T01:49:21;5.97;;;5.97;;
81006;SDS011;70472;47.592;17.640;2023-09-07T01:49:54;5.17;;;5.17;;
81006;SDS011;70472;47.592;17.640;2023-09-07T01:50:26;5.63;;;5.63;;
81006;SDS011;70472;47.592;17.640;2023-09-07T01:50:58;5.67;;;5.67;;
81006;SDS011;70472;47.592;17.640;2023-09-07T01:51:31;5.93;;;5.93;;
81006;SDS011;70472;47.592;17.640;2023-09-07T01:52:04;6.43;;;6.43;;
81006;SDS011;70472;47.592;17.640;2023-09-07T01:52:37;5.80;;;5.80;;
81006;SDS011;70472;47.592;17.640;2023-09-07T01:53:09;6.00;;;6.00;;
81006;SDS011;70472;47.592;17.640;2023-09-07T01:53:41;5.60;;;5.60;;
81006;SDS011;70472;47.592;17.640;2023-09-07T01:54:14;5.50;;;5.50;;
81006;SDS011;70472;47.592;17.640;2023-09-07T01:54:46;5.73;;;5.73;;
81006;SDS011;70472;47.592;17.640;2023-09-07T01:55:19;5.43;;;5.43;;
81006;SDS011;70472;47.592;17.640;2023-09-07T01:55:53;5.70;;;5.70;;
81006;SDS011;70472;47.592;17.640;2023-09-07T01:56:26;5.40;;;5.40;;
81006;SDS011;70472;47.592;17.640;2023-09-07T01:56:59;5.90;;;5.90;;
81006;SDS011;70472;47.592;17.640;2023-09-07T01:57:31;5.70;;;5.70;;
81006;SDS011;70472;47.592;17.640;2023-09-07T01:58:03;5.77;;;5.77;;
81006;SDS011;70472;47.592;17.640;2023-09-07T01:58:36;6.10;;;6.10;;
81006;SDS011;70472;47.592;17.640;2023-09-07T01:59:08;6.57;;;6.57;;
81006;SDS011;70472;47.592;17.640;2023-09-07T01:59:40;5.77;;;5.77;;
81006;SDS011;70472;47.592;17.640;2023-09-07T02:00:13;5.77;;;5.77;;
81006;SDS011;70472;47.592;17.640;2023-09-07T02:00:45;5.93;;;5.93;;
81006;SDS011;70472;47.592;17.640;2023-09-07T02:01:21;6.20;;;6.20;;
81006;SDS011;70472;47.592;17.640;2023-09-07T02:01:59;5.73;;;5.73;;
81006;SDS011;70472;47.592;17.640;2023-09-07T02:02:32;5.30;;;5.30;;
81006;SDS011;70472;47.592;17.640;2023-09-07T02:03:04;5.73;;;5.73;;
81006;SDS011;70472;47.592;17.640;2023-09-07T02:03:37;5.37;;;5.37;;
81006;SDS011;70472;47.592;17.640;2023-09-07T02:04:09;5.53;;;5.53;;
81006;SDS011;70472;47.592;17.640;2023-09-07T02:04:42;5.53;;;5.53;;
81006;SDS011;70472;47.592;17.640;2023-09-07T02:05:15;6.23;;;6.23;;
81006;SDS011;70472;47.592;17.640;2023-09-07T02:05:47;6.63;;;6.63;;
81006;SDS011;70472;47.592;17.640;2023-09-07T02:06:20;6.00;;;6.00;;
81006;SDS011;70472;47.592;17.640;2023-09-07T02:06:53;6.43;;;6.43;;
81006;SDS011;70472;47.592;17.640;2023-09-07T02:07:25;5.73;;;5.73;;
81006;SDS011;70472;47.592;17.640;2023-09-07T02:07:58;5.83;;;5.83;;
81006;SDS011;70472;47.592;17.640;2023-09-07T02:08:30;5.90;;;5.90;;
81006;SDS011;70472;47.592;17.640;2023-09-07T02:09:03;6.27;;;6.27;;
81006;SDS011;70472;47.592;17.640;2023-09-07T02:09:35;6.07;;;6.07;;
81006;SDS011;70472;47.592;17.640;2023-09-07T02:10:08;6.07;;;6.07;;
81006;SDS011;70472;47.592;17.640;2023-09-07T02:10:41;5.87;;;5.87;;
81006;SDS011;70472;47.592;17.640;2023-09-07T02:11:13;6.00;;;6.00;;
81006;SDS011;70472;47.592;17.640;2023-09-07T02:11:46;5.43;;;5.43;;
81006;SDS011;70472;47.592;17.640;2023-09-07T02:12:19;5.73;;;5.73;;
81006;SDS011;70472;47.592;17.640;2023-09-07T02:12:51;5.67;;;5.67;;
81006;SDS011;70472;47.592;17.640;2023-09-07T02:13:24;5.60;;;5.60;;
81006;SDS011;70472;47.592;17.640;2023-09-07T02:13:56;5.67;;;5.67;;
81006;SDS011;70472;47.592;17.640;2023-09-07T02:14:28;5.87;;;5.87;;
81006;SDS011;70472;47.592;17.640;2023-09-07T02:15:01;5.80;;;5.80;;
81006;SDS011;70472;47.592;17.640;2023-09-07T02:15:39;5.53;;;5.53;;
81006;SDS011;70472;47.592;17.640;2023-09-07T02:16:11;5.50;;;5.50;;
81006;SDS011;70472;47.592;17.640;2023-09-07T02:16:43;5.93;;;5.93;;
81006;SDS011;70472;47.592;17.640;2023-09-07T02:17:16;5.50;;;5.50;;
81006;SDS011;70472;47.592;17.640;2023-09-07T02:17:49;5.27;;;5.27;;
81006;SDS011;70472;47.592;17.640;2023-09-07T02:18:24;5.40;;;5.40;;
81006;SDS011;70472;47.592;17.640;2023-09-07T02:19:01;6.27;;;6.27;;
81006;SDS011;70472;47.592;17.640;2023-09-07T02:19:35;6.20;;;6.20;;
81006;SDS011;70472;47.592;17.640;2023-09-07T02:20:07;5.37;;;5.37;;
81006;SDS011;70472;47.592;17.640;2023-09-07T02:20:41;5.93;;;5.93;;
81006;SDS011;70472;47.592;17.640;2023-09-07T02:21:13;6.10;;;6.10;;
81006;SDS011;70472;47.592;17.640;2023-09-07T02:21:46;5.93;;;5.93;;
81006;SDS011;70472;47.592;17.640;2023-09-07T02:22:18;5.30;;;5.30;;
81006;SDS011;70472;47.592;17.640;2023-09-07T02:22:51;5.07;;;5.07;;
81006;SDS011;70472;47.592;17.640;2023-09-07T02:23:23;5.60;;;5.60;;
81006;SDS011;70472;47.592;17.640;2023-09-07T02:23:55;5.37;;;5.37;;
81006;SDS011;70472;47.592;17.640;2023-09-07T02:24:28;5.93;;;5.93;;
81006;SDS011;70472;47.592;17.640;2023-09-07T02:25:00;5.93;;;5.93;;
81006;SDS011;70472;47.592;17.640;2023-09-07T02:25:33;5.87;;;5.87;;
81006;SDS011;70472;47.592;17.640;2023-09-07T02:26:05;6.00;;;6.00;;
81006;SDS011;70472;47.592;17.640;2023-09-07T02:26:37;6.13;;;6.13;;
81006;SDS011;70472;47.592;17.640;2023-09-07T02:27:10;5.47;;;5.47;;
81006;SDS011;70472;47.592;17.640;2023-09-07T02:27:42;5.67;;;5.67;;
81006;SDS011;70472;47.592;17.640;2023-09-07T02:28:15;5.10;;;5.10;;
81006;SDS011;70472;47.592;17.640;2023-09-07T02:28:47;5.07;;;5.07;;
81006;SDS011;70472;47.592;17.640;2023-09-07T02:29:20;5.93;;;5.93;;
81006;SDS011;70472;47.592;17.640;2023-09-07T02:29:52;5.67;;;5.67;;
81006;SDS011;70472;47.592;17.640;2023-09-07T02:30:24;5.73;;;5.73;;
81006;SDS011;70472;47.592;17.640;2023-09-07T02:31:03;5.17;;;5.17;;
81006;SDS011;70472;47.592;17.640;2023-09-07T02:31:38;5.80;;;5.80;;
81006;SDS011;70472;47.592;17.640;2023-09-07T02:32:13;5.33;;;5.33;;
81006;SDS011;70472;47.592;17.640;2023-09-07T02:32:46;5.20;;;5.20;;
81006;SDS011;70472;47.592;17.640;2023-09-07T02:33:18;5.53;;;5.53;;
81006;SDS011;70472;47.592;17.640;2023-09-07T02:33:51;5.83;;;5.83;;
81006;SDS011;70472;47.592;17.640;2023-09-07T02:34:24;6.20;;;6.20;;
81006;SDS011;70472;47.592;17.640;2023-09-07T02:34:56;5.80;;;5.80;;
81006;SDS011;70472;47.592;17.640;2023-09-07T02:35:28;5.23;;;5.23;;
81006;SDS011;70472;47.592;17.640;2023-09-07T02:36:01;5.67;;;5.67;;
81006;SDS011;70472;47.592;17.640;2023-09-07T02:36:34;5.60;;;5.60;;
81006;SDS011;70472;47.592;17.640;2023-09-07T02:37:06;5.93;;;5.93;;
81006;SDS011;70472;47.592;17.640;2023-09-07T02:37:39;6.20;;;6.20;;
81006;SDS011;70472;47.592;17.640;2023-09-07T02:38:11;5.73;;;5.73;;
81006;SDS011;70472;47.592;17.640;2023-09-07T02:38:43;5.63;;;5.63;;
81006;SDS011;70472;47.592;17.640;2023-09-07T02:39:16;5.40;;;5.40;;
81006;SDS011;70472;47.592;17.640;2023-09-07T02:39:48;5.63;;;5.63;;
81006;SDS011;70472;47.592;17.640;2023-09-07T02:40:21;5.67;;;5.67;;
81006;SDS011;70472;47.592;17.640;2023-09-07T02:40:54;5.80;;;5.80;;
81006;SDS011;70472;47.592;17.640;2023-09-07T02:41:28;5.40;;;5.40;;
81006;SDS011;70472;47.592;17.640;2023-09-07T02:42:01;5.30;;;5.30;;
81006;SDS011;70472;47.592;17.640;2023-09-07T02:42:33;5.43;;;5.43;;
81006;SDS011;70472;47.592;17.640;2023-09-07T02:43:06;5.20;;;5.20;;
81006;SDS011;70472;47.592;17.640;2023-09-07T02:43:38;5.50;;;5.50;;
81006;SDS011;70472;47.592;17.640;2023-09-07T02:44:11;6.07;;;6.07;;
81006;SDS011;70472;47.592;17.640;2023-09-07T02:44:43;6.07;;;6.07;;
81006;SDS011;70472;47.592;17.640;2023-09-07T02:45:15;5.07;;;5.07;;
81006;SDS011;70472;47.592;17.640;2023-09-07T02:45:48;5.87;;;5.87;;
81006;SDS011;70472;47.592;17.640;2023-09-07T02:46:24;5.50;;;5.50;;
81006;SDS011;70472;47.592;17.640;2023-09-07T02:46:57;5.33;;;5.33;;
81006;SDS011;70472;47.592;17.640;2023-09-07T02:47:29;5.13;;;5.13;;
81006;SDS011;70472;47.592;17.640;2023-09-07T02:48:02;5.37;;;5.37;;
81006;SDS011;70472;47.592;17.640;2023-09-07T02:48:35;5.93;;;5.93;;
81006;SDS011;70472;47.592;17.640;2023-09-07T02:49:08;6.07;;;6.07;;
81006;SDS011;70472;47.592;17.640;2023-09-07T02:49:40;5.77;;;5.77;;
81006;SDS011;70472;47.592;17.640;2023-09-07T02:50:12;5.57;;;5.57;;
81006;SDS011;70472;47.592;17.640;2023-09-07T02:50:45;5.63;;;5.63;;
81006;SDS011;70472;47.592;17.640;2023-09-07T02:51:19;5.17;;;5.17;;
81006;SDS011;70472;47.592;17.640;2023-09-07T02:51:52;5.53;;;5.53;;
81006;SDS011;70472;47.592;17.640;2023-09-07T02:52:24;6.10;;;6.10;;
81006;SDS011;70472;47.592;17.640;2023-09-07T02:52:57;5.43;;;5.43;;
81006;SDS011;70472;47.592;17.640;2023-09-07T02:53:29;5.30;;;5.30;;
81006;SDS011;70472;47.592;17.640;2023-09-07T02:54:02;5.57;;;5.57;;
81006;SDS011;70472;47.592;17.640;2023-09-07T02:54:36;5.50;;;5.50;;
81006;SDS011;70472;47.592;17.640;2023-09-07T02:55:08;4.97;;;4.97;;
81006;SDS011;70472;47.592;17.640;2023-09-07T02:55:41;5.13;;;5.13;;
81006;SDS011;70472;47.592;17.640;2023-09-07T02:56:13;5.13;;;5.13;;
81006;SDS011;70472;47.592;17.640;2023-09-07T02:56:45;5.73;;;5.73;;
81006;SDS011;70472;47.592;17.640;2023-09-07T02:57:18;5.83;;;5.83;;
81006;SDS011;70472;47.592;17.640;2023-09-07T02:57:50;5.93;;;5.93;;
81006;SDS011;70472;47.592;17.640;2023-09-07T02:58:23;6.00;;;6.00;;
81006;SDS011;70472;47.592;17.640;2023-09-07T02:58:57;5.67;;;5.67;;
81006;SDS011;70472;47.592;17.640;2023-09-07T02:59:29;4.93;;;4.93;;
81006;SDS011;70472;47.592;17.640;2023-09-07T03:00:02;4.93;;;4.93;;
81006;SDS011;70472;47.592;17.640;2023-09-07T03:00:40;5.33;;;5.33;;
81006;SDS011;70472;47.592;17.640;2023-09-07T03:01:14;5.17;;;5.17;;
81006;SDS011;70472;47.592;17.640;2023-09-07T03:01:46;5.73;;;5.73;;
81006;SDS011;70472;47.592;17.640;2023-09-07T03:02:19;5.90;;;5.90;;
81006;SDS011;70472;47.592;17.640;2023-09-07T03:02:51;5.70;;;5.70;;
81006;SDS011;70472;47.592;17.640;2023-09-07T03:03:24;5.93;;;5.93;;
81006;SDS011;70472;47.592;17.640;2023-09-07T03:03:57;5.43;;;5.43;;
81006;SDS011;70472;47.592;17.640;2023-09-07T03:04:29;5.37;;;5.37;;
81006;SDS011;70472;47.592;17.640;2023-09-07T03:05:02;5.30;;;5.30;;
81006;SDS011;70472;47.592;17.640;2023-09-07T03:05:35;5.63;;;5.63;;
81006;SDS011;70472;47.592;17.640;2023-09-07T03:06:08;5.77;;;5.77;;
81006;SDS011;70472;47.592;17.640;2023-09-07T03:06:43;6.03;;;6.03;;
81006;SDS011;70472;47.592;17.640;2023-09-07T03:07:16;5.37;;;5.37;;
81006;SDS011;70472;47.592;17.640;2023-09-07T03:07:48;5.90;;;5.90;;
81006;SDS011;70472;47.592;17.640;2023-09-07T03:08:23;5.80;;;5.80;;
81006;SDS011;70472;47.592;17.640;2023-09-07T03:08:55;5.37;;;5.37;;
81006;SDS011;70472;47.592;17.640;2023-09-07T03:09:27;5.10;;;5.10;;
81006;SDS011;70472;47.592;17.640;2023-09-07T03:10:00;5.83;;;5.83;;
81006;SDS011;70472;47.592;17.640;2023-09-07T03:10:33;5.33;;;5.33;;
81006;SDS011;70472;47.592;17.640;2023-09-07T03:11:08;5.53;;;5.53;;
81006;SDS011;70472;47.592;17.640;2023-09-07T03:11:41;5.30;;;5.30;;
81006;SDS011;70472;47.592;17.640;2023-09-07T03:12:13;5.53;;;5.53;;
81006;SDS011;70472;47.592;17.640;2023-09-07T03:12:45;5.47;;;5.47;;
81006;SDS011;70472;47.592;17.640;2023-09-07T03:13:18;5.90;;;5.90;;
81006;SDS011;70472;47.592;17.640;2023-09-07T03:13:50;5.33;;;5.33;;
81006;SDS011;70472;47.592;17.640;2023-09-07T03:14:23;5.13;;;5.13;;
81006;SDS011;70472;47.592;17.640;2023-09-07T03:14:55;5.23;;;5.23;;
81006;SDS011;70472;47.592;17.640;2023-09-07T03:15:27;5.53;;;5.53;;
81006;SDS011;70472;47.592;17.640;2023-09-07T03:16:03;5.27;;;5.27;;
81006;SDS011;70472;47.592;17.640;2023-09-07T03:16:37;5.63;;;5.63;;
81006;SDS011;70472;47.592;17.640;2023-09-07T03:17:10;5.90;;;5.90;;
81006;SDS011;70472;47.592;17.640;2023-09-07T03:17:42;5.37;;;5.37;;